createdAt,value
2022-09-09T00:02:19.691Z,100.00
2022-09-09T00:05:22.498Z,100.00
2022-09-09T00:07:50.664Z,100.00
2022-09-09T00:10:19.678Z,100.00
2022-09-09T00:12:46.060Z,100.00
2022-09-09T00:15:14.172Z,100.00
2022-09-09T00:17:40.922Z,100.00
2022-09-09T00:20:07.395Z,100.00
2022-09-09T00:22:33.841Z,100.00
2022-09-09T00:25:11.337Z,100.00
2022-09-09T00:27:47.832Z,100.00
2022-09-09T00:30:23.663Z,98.93
2022-09-09T00:32:55.339Z,98.80
2022-09-09T00:35:24.946Z,99.00
2022-09-09T00:37:52.946Z,98.79
2022-09-09T00:40:27.383Z,97.89
2022-09-09T00:43:03.152Z,98.07
2022-09-09T00:45:32.650Z,98.20
2022-09-09T00:48:03.128Z,97.43
2022-09-09T00:50:48.125Z,97.05
2022-09-09T00:53:30.977Z,96.91
2022-09-09T00:56:00.337Z,96.44
2022-09-09T00:58:28.507Z,97.15
2022-09-09T01:01:04.382Z,97.28
2022-09-09T01:03:36.846Z,96.92
2022-09-09T01:06:06.134Z,97.01
2022-09-09T01:08:35.851Z,96.43
2022-09-09T01:11:03.371Z,97.01
2022-09-09T01:13:31.493Z,96.49
2022-09-09T01:16:03.625Z,97.07
2022-09-09T01:18:35.564Z,96.74
2022-09-09T01:21:17.173Z,97.35
2022-09-09T01:24:02.748Z,98.50
2022-09-09T01:26:31.437Z,97.46
2022-09-09T01:28:57.946Z,97.46
2022-09-09T01:31:29.104Z,98.21
2022-09-09T01:33:55.737Z,97.99
2022-09-09T01:36:42.445Z,98.21
2022-09-09T01:39:09.136Z,97.89
2022-09-09T01:41:35.582Z,97.54
2022-09-09T01:44:02.149Z,96.70
2022-09-09T01:46:29.677Z,96.95
2022-09-09T01:48:57.271Z,97.03
2022-09-09T01:51:24.399Z,97.73
2022-09-09T01:53:50.947Z,97.20
2022-09-09T01:56:23.204Z,97.89
2022-09-09T01:59:08.392Z,97.94
2022-09-09T02:01:48.021Z,97.94
2022-09-09T02:04:23.339Z,98.84
2022-09-09T02:06:52.540Z,98.58
2022-09-09T02:09:20.174Z,98.77
2022-09-09T02:11:48.586Z,98.52
2022-09-09T02:14:19.005Z,99.05
2022-09-09T02:16:47.817Z,99.96
2022-09-09T02:19:18.100Z,100.00
2022-09-09T02:21:46.356Z,100.00
2022-09-09T02:24:15.121Z,100.00
2022-09-09T02:26:43.511Z,98.98
2022-09-09T02:29:14.471Z,98.47
2022-09-09T02:31:42.529Z,98.17
2022-09-09T02:34:28.684Z,98.07
2022-09-09T02:36:57.939Z,98.45
2022-09-09T02:39:24.425Z,98.64
2022-09-09T02:41:50.870Z,99.06
2022-09-09T02:44:18.981Z,99.73
2022-09-09T02:46:52.848Z,98.29
2022-09-09T02:49:37.882Z,98.41
2022-09-09T02:52:17.207Z,98.17
2022-09-09T02:54:44.583Z,98.01
2022-09-09T02:57:17.144Z,97.73
2022-09-09T02:59:44.310Z,97.50
2022-09-09T03:02:12.473Z,97.90
2022-09-09T03:04:39.505Z,98.60
2022-09-09T03:07:06.434Z,98.68
2022-09-09T03:09:36.175Z,98.91
2022-09-09T03:12:03.246Z,99.65
2022-09-09T03:14:29.693Z,99.71
2022-09-09T03:16:57.474Z,100.00
2022-09-09T03:19:24.040Z,100.00
2022-09-09T03:21:50.495Z,100.00
2022-09-09T03:24:16.948Z,100.00
2022-09-09T03:26:45.787Z,100.00
2022-09-09T03:29:15.787Z,100.00
2022-09-09T03:31:42.280Z,100.00
2022-09-09T03:34:08.861Z,100.00
2022-09-09T03:36:35.789Z,100.00
2022-09-09T03:39:03.944Z,100.00
2022-09-09T03:41:30.975Z,100.00
2022-09-09T03:43:57.652Z,100.00
2022-09-09T03:46:25.274Z,100.00
2022-09-09T03:48:53.347Z,100.00
2022-09-09T03:51:19.947Z,100.00
2022-09-09T03:53:46.490Z,100.00
2022-09-09T03:56:12.957Z,100.00
2022-09-09T03:58:39.464Z,100.00
2022-09-09T04:01:10.058Z,100.00
2022-09-09T04:03:43.416Z,100.00
2022-09-09T04:06:11.859Z,100.00
2022-09-09T04:08:39.570Z,100.00
2022-09-09T04:11:07.413Z,100.00
2022-09-09T04:13:35.193Z,100.00
2022-09-09T04:16:02.492Z,100.00
2022-09-09T04:18:31.980Z,100.00
2022-09-09T04:20:58.518Z,100.00
2022-09-09T04:23:26.363Z,100.00
2022-09-09T04:25:53.270Z,100.00
2022-09-09T04:28:20.864Z,100.00
2022-09-09T04:30:47.361Z,100.00
2022-09-09T04:33:14.365Z,100.00
2022-09-09T04:35:44.896Z,100.00
2022-09-09T04:38:11.377Z,100.00
2022-09-09T04:40:37.871Z,100.00
2022-09-09T04:43:08.291Z,100.00
2022-09-09T04:45:36.427Z,100.00
2022-09-09T04:48:03.734Z,100.00
2022-09-09T04:50:30.159Z,100.00
2022-09-09T04:52:56.608Z,100.00
2022-09-09T04:55:23.135Z,100.00
2022-09-09T04:57:49.551Z,100.00
2022-09-09T05:00:16.303Z,100.00
2022-09-09T05:02:43.876Z,100.00
2022-09-09T05:05:12.301Z,100.00
2022-09-09T05:07:38.812Z,100.00
2022-09-09T05:10:06.067Z,100.00
2022-09-09T05:12:32.956Z,100.00
2022-09-09T05:14:59.394Z,100.00
2022-09-09T05:17:25.895Z,100.00
2022-09-09T05:19:52.293Z,100.00
2022-09-09T05:22:22.865Z,100.00
2022-09-09T05:24:51.856Z,100.00
2022-09-09T05:27:20.404Z,100.00
2022-09-09T05:29:47.470Z,100.00
2022-09-09T05:32:16.102Z,100.00
2022-09-09T05:34:42.563Z,100.00
2022-09-09T05:37:08.994Z,100.00
2022-09-09T05:39:37.996Z,100.00
2022-09-09T05:42:05.446Z,100.00
2022-09-09T05:44:32.170Z,100.00
2022-09-09T05:46:59.069Z,100.00
2022-09-09T05:49:25.745Z,100.00
2022-09-09T05:51:52.503Z,100.00
2022-09-09T05:54:18.995Z,100.00
2022-09-09T05:56:49.835Z,100.00
2022-09-09T05:59:17.956Z,100.00
2022-09-09T06:01:45.265Z,100.00
2022-09-09T06:04:11.886Z,100.00
2022-09-09T06:06:40.891Z,100.00
2022-09-09T06:09:10.679Z,100.00
2022-09-09T06:11:38.200Z,100.00
2022-09-09T06:14:04.878Z,100.00
2022-09-09T06:16:33.712Z,100.00
2022-09-09T06:19:00.770Z,100.00
2022-09-09T06:21:38.030Z,100.00
2022-09-09T06:24:05.054Z,100.00
2022-09-09T06:26:32.972Z,100.00
2022-09-09T06:29:00.526Z,100.00
2022-09-09T06:31:31.511Z,100.00
2022-09-09T06:33:59.011Z,100.00
2022-09-09T06:36:26.651Z,100.00
2022-09-09T06:38:53.493Z,100.00
2022-09-09T06:41:21.139Z,100.00
2022-09-09T06:43:48.016Z,100.00
2022-09-09T06:46:19.891Z,100.00
2022-09-09T06:48:46.854Z,100.00
2022-09-09T06:51:14.589Z,100.00
2022-09-09T06:53:43.007Z,100.00
2022-09-09T06:56:17.341Z,100.00
2022-09-09T06:58:47.649Z,100.00
2022-09-09T07:01:15.289Z,100.00
2022-09-09T07:03:43.219Z,100.00
2022-09-09T07:06:15.840Z,100.00
2022-09-09T07:08:42.366Z,100.00
2022-09-09T07:11:12.400Z,100.00
2022-09-09T07:13:39.271Z,100.00
2022-09-09T07:16:10.416Z,100.00
2022-09-09T07:18:37.245Z,100.00
2022-09-09T07:21:04.282Z,100.00
2022-09-09T07:23:35.546Z,100.00
2022-09-09T07:26:04.007Z,100.00
2022-09-09T07:28:32.123Z,100.00
2022-09-09T07:30:59.849Z,100.00
2022-09-09T07:33:26.979Z,100.00
2022-09-09T07:35:53.855Z,100.00
2022-09-09T07:38:22.119Z,100.00
2022-09-09T07:40:48.739Z,100.00
2022-09-09T07:43:17.331Z,100.00
2022-09-09T07:45:44.062Z,100.00
2022-09-09T07:48:10.683Z,100.00
2022-09-09T07:50:37.371Z,100.00
2022-09-09T07:53:06.115Z,100.00
2022-09-09T07:55:32.670Z,100.00
2022-09-09T07:57:59.209Z,100.00
2022-09-09T08:00:25.958Z,100.00
2022-09-09T08:02:55.289Z,100.00
2022-09-09T08:05:23.388Z,100.00
2022-09-09T08:07:49.895Z,100.00
2022-09-09T08:10:17.082Z,100.00
2022-09-09T08:13:01.534Z,100.00
2022-09-09T08:15:31.610Z,100.00
2022-09-09T08:17:58.126Z,100.00
2022-09-09T08:20:24.722Z,100.00
2022-09-09T08:22:51.396Z,100.00
2022-09-09T08:25:17.983Z,100.00
2022-09-09T08:27:44.561Z,100.00
2022-09-09T08:30:13.832Z,100.00
2022-09-09T08:32:43.355Z,100.00
2022-09-09T08:35:12.341Z,100.00
2022-09-09T08:37:38.793Z,100.00
2022-09-09T08:40:05.559Z,100.00
2022-09-09T08:42:53.520Z,100.00
2022-09-09T08:45:25.902Z,100.00
2022-09-09T08:47:58.179Z,100.00
2022-09-09T08:50:25.747Z,100.00
2022-09-09T08:52:52.303Z,100.00
2022-09-09T08:55:18.729Z,100.00
2022-09-09T08:57:47.021Z,100.00
2022-09-09T09:00:13.650Z,100.00
2022-09-09T09:03:03.529Z,100.00
2022-09-09T09:05:34.152Z,100.00
2022-09-09T09:08:00.874Z,100.00
2022-09-09T09:10:42.306Z,100.00
2022-09-09T09:13:22.184Z,100.00
2022-09-09T09:15:53.182Z,100.00
2022-09-09T09:18:19.663Z,100.00
2022-09-09T09:20:50.309Z,100.00
2022-09-09T09:23:21.995Z,100.00
2022-09-09T09:25:48.699Z,100.00
2022-09-09T09:28:18.826Z,100.00
2022-09-09T09:30:48.743Z,99.53
2022-09-09T09:33:27.816Z,100.00
2022-09-09T09:35:54.713Z,99.07
2022-09-09T09:41:10.552Z,94.03
2022-09-09T09:43:38.219Z,91.71
2022-09-09T09:46:17.569Z,92.28
2022-09-09T09:48:46.635Z,91.66
2022-09-09T09:51:17.051Z,90.82
2022-09-09T09:53:43.937Z,93.62
2022-09-09T09:56:11.567Z,92.89
2022-09-09T09:58:47.242Z,91.25
2022-09-09T10:01:28.858Z,88.65
2022-09-09T10:03:58.154Z,87.29
2022-09-09T10:06:32.507Z,84.51
2022-09-09T10:08:58.974Z,84.29
2022-09-09T10:11:36.618Z,84.46
2022-09-09T10:14:16.136Z,85.76
2022-09-09T10:16:53.375Z,84.11
2022-09-09T10:19:40.398Z,79.81
2022-09-09T10:22:25.476Z,77.45
2022-09-09T10:25:11.303Z,74.97
2022-09-09T10:27:59.755Z,77.56
2022-09-09T10:30:53.706Z,76.78
2022-09-09T10:33:32.658Z,76.92
2022-09-09T10:36:02.616Z,75.13
2022-09-09T10:38:49.397Z,73.20
2022-09-09T10:41:15.840Z,72.22
2022-09-09T10:44:06.188Z,76.16
2022-09-09T10:46:47.323Z,75.39
2022-09-09T10:49:32.677Z,71.50
2022-09-09T10:52:19.662Z,70.64
2022-09-09T10:55:21.427Z,69.48
2022-09-09T10:57:53.231Z,67.54
2022-09-09T11:00:21.604Z,67.50
2022-09-09T11:03:07.786Z,67.29
2022-09-09T11:05:45.877Z,67.03
2022-09-09T11:08:15.443Z,66.74
2022-09-09T11:10:41.974Z,67.41
2022-09-09T11:13:16.869Z,68.19
2022-09-09T11:15:46.396Z,67.30
2022-09-09T11:18:17.105Z,71.26
2022-09-09T11:20:45.454Z,72.07
2022-09-09T11:23:18.149Z,71.27
2022-09-09T11:25:48.254Z,69.46
2022-09-09T11:28:16.536Z,67.05
2022-09-09T11:31:04.386Z,65.43
2022-09-09T11:33:40.075Z,63.13
2022-09-09T11:36:25.905Z,62.92
2022-09-09T11:38:53.148Z,60.83
2022-09-09T11:41:22.219Z,58.79
2022-09-09T11:43:52.318Z,59.05
2022-09-09T11:46:20.312Z,58.24
2022-09-09T11:48:58.159Z,60.66
2022-09-09T11:51:24.741Z,59.24
2022-09-09T11:53:55.804Z,60.25
2022-09-09T11:56:25.055Z,62.48
2022-09-09T11:58:56.298Z,63.19
2022-09-09T12:01:49.779Z,58.95
2022-09-09T12:04:37.747Z,60.64
2022-09-09T12:07:04.319Z,58.28
2022-09-09T12:09:49.562Z,59.59
2022-09-09T12:12:16.074Z,61.09
2022-09-09T12:14:42.550Z,59.18
2022-09-09T12:17:23.679Z,56.13
2022-09-09T12:20:06.230Z,54.69
2022-09-09T12:22:41.568Z,52.42
2022-09-09T12:25:14.560Z,53.30
2022-09-09T12:27:47.144Z,55.47
2022-09-09T12:30:16.273Z,57.84
2022-09-09T12:32:45.359Z,54.82
2022-09-09T12:35:11.881Z,52.27
2022-09-09T12:37:39.837Z,52.62
2022-09-09T12:40:25.119Z,54.09
2022-09-09T12:42:51.786Z,52.56
2022-09-09T12:45:20.256Z,52.90
2022-09-09T12:48:01.609Z,52.85
2022-09-09T12:50:41.532Z,52.11
2022-09-09T12:53:11.148Z,51.14
2022-09-09T12:55:39.083Z,51.43
2022-09-09T12:58:07.147Z,50.31
2022-09-09T13:00:34.957Z,48.99
2022-09-09T13:03:02.708Z,47.48
2022-09-09T13:05:35.163Z,45.78
2022-09-09T13:08:03.428Z,45.18
2022-09-09T13:10:36.599Z,45.53
2022-09-09T13:13:17.183Z,43.47
2022-09-09T13:15:50.310Z,45.17
2022-09-09T13:18:17.603Z,44.45
2022-09-09T13:20:48.574Z,44.15
2022-09-09T13:23:16.330Z,44.31
2022-09-09T13:25:54.355Z,44.28
2022-09-09T13:28:25.874Z,43.00
2022-09-09T13:31:03.602Z,42.98
2022-09-09T13:33:35.119Z,42.91
2022-09-09T13:36:06.420Z,43.71
2022-09-09T13:38:53.209Z,42.55
2022-09-09T13:41:24.722Z,42.86
2022-09-09T13:43:52.217Z,45.01
2022-09-09T13:46:31.379Z,47.06
2022-09-09T13:48:59.249Z,45.73
2022-09-09T13:51:31.888Z,47.69
2022-09-09T13:53:59.141Z,47.78
2022-09-09T13:56:25.583Z,48.27
2022-09-09T13:58:52.013Z,47.22
2022-09-09T14:01:18.553Z,48.50
2022-09-09T14:03:45.008Z,46.77
2022-09-09T14:06:12.134Z,45.70
2022-09-09T14:08:39.712Z,45.96
2022-09-09T14:11:06.224Z,46.34
2022-09-09T14:13:33.398Z,47.16
2022-09-09T14:15:59.954Z,47.82
2022-09-09T14:18:26.550Z,46.47
2022-09-09T14:20:52.992Z,49.42
2022-09-09T14:23:19.906Z,50.67
2022-09-09T14:25:47.515Z,48.09
2022-09-09T14:28:14.545Z,46.58
2022-09-09T14:30:42.253Z,45.92
2022-09-09T14:33:10.396Z,45.98
2022-09-09T14:35:37.303Z,49.48
2022-09-09T14:38:05.001Z,47.13
2022-09-09T14:40:31.843Z,45.29
2022-09-09T14:42:59.444Z,45.59
2022-09-09T14:45:25.913Z,49.43
2022-09-09T14:47:52.680Z,48.71
2022-09-09T14:50:20.254Z,48.09
2022-09-09T14:52:46.886Z,46.46
2022-09-09T14:55:13.834Z,46.10
2022-09-09T14:57:41.275Z,47.41
2022-09-09T15:00:09.042Z,46.98
2022-09-09T15:02:35.556Z,46.16
2022-09-09T15:05:02.501Z,47.36
2022-09-09T15:07:29.360Z,48.92
2022-09-09T15:09:56.146Z,49.76
2022-09-09T15:12:22.665Z,49.82
2022-09-09T15:14:49.391Z,48.04
2022-09-09T15:17:15.823Z,48.00
2022-09-09T15:19:43.128Z,47.65
2022-09-09T15:22:09.713Z,49.34
2022-09-09T15:24:36.225Z,47.88
2022-09-09T15:27:03.390Z,48.18
2022-09-09T15:29:29.800Z,46.95
2022-09-09T15:31:56.539Z,48.69
2022-09-09T15:34:23.299Z,49.13
2022-09-09T15:36:50.069Z,48.31
2022-09-09T15:39:17.607Z,47.00
2022-09-09T15:41:45.062Z,47.86
2022-09-09T15:44:13.305Z,48.79
2022-09-09T15:46:44.484Z,50.88
2022-09-09T15:49:15.329Z,49.56
2022-09-09T15:51:44.505Z,48.44
2022-09-09T15:54:13.311Z,47.68
2022-09-09T15:56:40.158Z,47.10
2022-09-09T15:59:06.701Z,45.80
2022-09-09T16:01:33.543Z,45.54
2022-09-09T16:04:01.096Z,45.87
2022-09-09T16:06:42.767Z,46.51
2022-09-09T16:09:09.431Z,46.28
2022-09-09T16:11:37.704Z,47.63
2022-09-09T16:14:04.928Z,48.47
2022-09-09T16:16:32.138Z,48.04
2022-09-09T16:18:59.768Z,49.98
2022-09-09T16:21:30.474Z,53.79
2022-09-09T16:23:57.755Z,56.30
2022-09-09T16:26:24.221Z,58.28
2022-09-09T16:28:50.727Z,60.19
2022-09-09T16:31:20.881Z,61.38
2022-09-09T16:33:48.517Z,62.89
2022-09-09T16:36:16.258Z,63.61
2022-09-09T16:38:43.691Z,64.81
2022-09-09T16:41:10.763Z,66.27
2022-09-09T16:43:38.050Z,66.73
2022-09-09T16:46:12.148Z,68.39
2022-09-09T16:48:38.901Z,68.81
2022-09-09T16:51:06.546Z,70.06
2022-09-09T16:53:33.352Z,70.97
2022-09-09T16:56:05.775Z,72.06
2022-09-09T16:58:32.283Z,72.18
2022-09-09T17:00:59.670Z,72.78
2022-09-09T17:03:26.197Z,73.73
2022-09-09T17:05:52.801Z,74.07
2022-09-09T17:08:19.250Z,75.45
2022-09-09T17:10:46.715Z,76.19
2022-09-09T17:13:14.207Z,76.96
2022-09-09T17:15:43.862Z,77.18
2022-09-09T17:18:11.081Z,77.90
2022-09-09T17:20:46.334Z,77.99
2022-09-09T17:23:16.310Z,79.67
2022-09-09T17:25:42.891Z,79.20
2022-09-09T17:28:09.362Z,81.01
2022-09-09T17:30:37.553Z,81.28
2022-09-09T17:33:04.640Z,82.66
2022-09-09T17:35:32.239Z,82.20
2022-09-09T17:37:59.084Z,82.16
2022-09-09T17:40:25.633Z,84.20
2022-09-09T17:42:52.278Z,84.47
2022-09-09T17:45:19.014Z,84.41
2022-09-09T17:47:45.657Z,84.29
2022-09-09T17:50:13.794Z,85.23
2022-09-09T17:52:41.652Z,85.39
2022-09-09T17:55:10.110Z,86.33
2022-09-09T17:57:36.555Z,86.54
2022-09-09T18:00:04.245Z,86.80
2022-09-09T18:02:30.720Z,87.98
2022-09-09T18:04:57.515Z,87.17
2022-09-09T18:07:24.822Z,88.71
2022-09-09T18:09:51.267Z,89.42
2022-09-09T18:12:18.098Z,88.67
2022-09-09T18:14:44.515Z,89.25
2022-09-09T18:17:11.170Z,89.71
2022-09-09T18:19:37.653Z,90.75
2022-09-09T18:22:05.359Z,90.67
2022-09-09T18:24:31.949Z,90.41
2022-09-09T18:26:58.807Z,91.37
2022-09-09T18:29:25.572Z,90.95
2022-09-09T18:31:54.994Z,92.05
2022-09-09T18:34:22.727Z,92.08
2022-09-09T18:36:54.608Z,91.86
2022-09-09T18:39:22.380Z,92.75
2022-09-09T18:41:51.686Z,92.25
2022-09-09T18:44:19.743Z,93.16
2022-09-09T18:46:46.683Z,92.99
2022-09-09T18:49:15.143Z,92.95
2022-09-09T18:51:42.896Z,93.33
2022-09-09T18:54:17.310Z,93.84
2022-09-09T18:56:44.238Z,95.49
2022-09-09T18:59:12.742Z,100.00
2022-09-09T19:01:39.387Z,100.00
2022-09-09T19:04:06.779Z,100.00
2022-09-09T19:06:34.012Z,100.00
2022-09-09T19:09:03.710Z,100.00
2022-09-09T19:11:31.354Z,100.00
2022-09-09T19:13:59.321Z,100.00
2022-09-09T19:16:29.122Z,100.00
2022-09-09T19:18:57.873Z,100.00
2022-09-09T19:21:26.036Z,100.00
2022-09-09T19:24:04.210Z,100.00
2022-09-09T19:26:32.245Z,100.00
2022-09-09T19:28:59.752Z,100.00
2022-09-09T19:31:28.009Z,100.00
2022-09-09T19:33:55.740Z,100.00
2022-09-09T19:36:23.403Z,100.00
2022-09-09T19:38:50.086Z,100.00
2022-09-09T19:41:21.444Z,100.00
2022-09-09T19:43:48.419Z,100.00
2022-09-09T19:46:16.333Z,100.00
2022-09-09T19:48:42.946Z,100.00
2022-09-09T19:51:11.029Z,100.00
2022-09-09T19:53:39.131Z,100.00
2022-09-09T19:56:05.710Z,100.00
2022-09-09T19:58:34.429Z,100.00
2022-09-09T20:01:06.968Z,100.00
2022-09-09T20:03:35.045Z,100.00
2022-09-09T20:06:01.481Z,100.00
2022-09-09T20:08:27.951Z,100.00
2022-09-09T20:10:54.488Z,100.00
2022-09-09T20:13:20.985Z,100.00
2022-09-09T20:15:56.733Z,100.00
2022-09-09T20:18:23.212Z,100.00
2022-09-09T20:20:50.632Z,100.00
2022-09-09T20:23:18.694Z,100.00
2022-09-09T20:25:45.399Z,100.00
2022-09-09T20:28:11.847Z,100.00
2022-09-09T20:30:38.654Z,100.00
2022-09-09T20:33:05.123Z,100.00
2022-09-09T20:35:33.174Z,100.00
2022-09-09T20:38:00.903Z,100.00
2022-09-09T20:40:30.383Z,100.00
2022-09-09T20:42:59.706Z,100.00
2022-09-09T20:45:26.159Z,100.00
2022-09-09T20:47:52.668Z,100.00
2022-09-09T20:50:19.102Z,100.00
2022-09-09T20:52:45.638Z,100.00
2022-09-09T20:55:12.081Z,100.00
2022-09-09T20:57:38.739Z,100.00
2022-09-09T21:00:07.685Z,100.00
2022-09-09T21:02:34.234Z,100.00
2022-09-09T21:05:01.597Z,100.00
2022-09-09T21:07:29.139Z,100.00
2022-09-09T21:09:58.340Z,100.00
2022-09-09T21:12:24.793Z,100.00
2022-09-09T21:14:51.736Z,100.00
2022-09-09T21:17:18.675Z,100.00
2022-09-09T21:19:45.346Z,100.00
2022-09-09T21:22:14.179Z,100.00
2022-09-09T21:24:40.928Z,100.00
2022-09-09T21:27:07.404Z,100.00
2022-09-09T21:29:33.909Z,100.00
2022-09-09T21:32:01.243Z,100.00
2022-09-09T21:34:27.740Z,100.00
2022-09-09T21:36:54.179Z,100.00
2022-09-09T21:39:20.677Z,100.00
2022-09-09T21:41:47.781Z,100.00
2022-09-09T21:44:14.513Z,100.00
2022-09-09T21:46:43.423Z,100.00
2022-09-09T21:49:09.964Z,100.00
2022-09-09T21:51:36.473Z,100.00
2022-09-09T21:54:02.916Z,100.00
2022-09-09T21:56:29.601Z,100.00
2022-09-09T21:58:57.648Z,100.00
2022-09-09T22:01:24.928Z,100.00
2022-09-09T22:03:51.656Z,100.00
2022-09-09T22:06:18.631Z,100.00
2022-09-09T22:08:46.053Z,100.00
2022-09-09T22:11:17.059Z,100.00
2022-09-09T22:13:45.998Z,100.00
2022-09-09T22:16:14.053Z,100.00
2022-09-09T22:18:40.763Z,100.00
2022-09-09T22:21:08.330Z,100.00
2022-09-09T22:23:36.485Z,100.00
2022-09-09T22:26:03.443Z,100.00
2022-09-09T22:28:30.718Z,100.00
2022-09-09T22:30:57.260Z,100.00
2022-09-09T22:33:24.294Z,100.00
2022-09-09T22:35:50.787Z,100.00
2022-09-09T22:38:17.328Z,100.00
2022-09-09T22:40:43.819Z,100.00
2022-09-09T22:43:13.795Z,100.00
2022-09-09T22:45:40.308Z,100.00
2022-09-09T22:48:06.804Z,100.00
2022-09-09T22:50:45.769Z,100.00
2022-09-09T22:53:15.779Z,100.00
2022-09-09T22:55:42.316Z,100.00
2022-09-09T22:58:09.485Z,100.00
2022-09-09T23:00:35.923Z,100.00
2022-09-09T23:03:02.961Z,100.00
2022-09-09T23:05:30.223Z,100.00
2022-09-09T23:07:59.627Z,100.00
2022-09-09T23:10:27.247Z,100.00
2022-09-09T23:12:54.246Z,100.00
2022-09-09T23:15:20.768Z,100.00
2022-09-09T23:17:47.192Z,100.00
2022-09-09T23:20:13.656Z,100.00
2022-09-09T23:22:40.598Z,100.00
2022-09-09T23:25:07.414Z,100.00
2022-09-09T23:27:34.790Z,100.00
2022-09-09T23:30:01.622Z,100.00
2022-09-09T23:32:28.142Z,100.00
2022-09-09T23:34:54.836Z,100.00
2022-09-09T23:37:21.293Z,100.00
2022-09-09T23:39:48.065Z,100.00
2022-09-09T23:42:14.591Z,100.00
2022-09-09T23:44:41.045Z,100.00
2022-09-09T23:47:09.365Z,100.00
2022-09-09T23:49:37.269Z,100.00
2022-09-09T23:52:05.437Z,100.00
2022-09-09T23:54:32.153Z,100.00
2022-09-09T23:56:58.584Z,100.00
2022-09-09T23:59:25.072Z,100.00
